createdAt,value
2023-02-26T02:46:39.639Z,5.50
2023-02-26T02:49:23.975Z,6.83
2023-02-26T02:51:59.679Z,2.83
2023-02-26T02:54:38.712Z,3.37
2023-02-26T02:57:13.604Z,4.33
2023-02-26T02:59:45.153Z,8.00
2023-02-26T03:02:20.218Z,6.63
2023-02-26T03:04:47.758Z,6.63
2023-02-26T03:07:15.120Z,5.03
2023-02-26T03:09:43.145Z,5.03
2023-02-26T03:12:10.087Z,5.17
2023-02-26T03:14:37.396Z,5.47
2023-02-26T03:17:35.022Z,3.30
2023-02-26T03:20:01.889Z,6.60
2023-02-26T03:22:55.909Z,4.57
2023-02-26T03:25:31.701Z,4.40
2023-02-26T03:28:16.202Z,5.70
2023-02-26T03:30:56.230Z,6.67
2023-02-26T03:33:31.415Z,4.37
2023-02-26T03:39:05.607Z,3.60
2023-02-26T03:41:47.921Z,2.87
2023-02-26T03:44:24.503Z,4.50
2023-02-26T03:47:07.995Z,4.87
2023-02-26T03:49:50.654Z,3.37
2023-02-26T03:52:18.528Z,4.50
2023-02-26T03:55:09.885Z,3.83
2023-02-26T03:57:37.344Z,4.60
2023-02-26T04:00:06.859Z,6.37
2023-02-26T04:02:40.916Z,5.87
2023-02-26T04:05:13.618Z,5.60
2023-02-26T04:07:41.078Z,2.60
2023-02-26T04:10:10.194Z,3.20
2023-02-26T04:12:37.186Z,5.87
2023-02-26T04:15:05.407Z,3.23
2023-02-26T04:17:32.420Z,2.87
2023-02-26T04:19:59.519Z,2.60
2023-02-26T04:22:26.855Z,4.77
2023-02-26T04:24:53.892Z,4.73
2023-02-26T04:27:20.905Z,3.90
2023-02-26T04:29:47.744Z,3.50
2023-02-26T04:32:14.955Z,4.13
2023-02-26T04:34:42.040Z,4.27
2023-02-26T04:37:09.127Z,3.53
2023-02-26T04:39:39.112Z,4.00
2023-02-26T04:42:06.182Z,3.37
2023-02-26T04:44:33.093Z,5.13
2023-02-26T04:47:00.350Z,2.93
2023-02-26T04:49:27.368Z,3.53
2023-02-26T04:51:54.399Z,2.43
2023-02-26T04:54:21.318Z,3.10
2023-02-26T04:56:48.402Z,2.93
2023-02-26T04:59:15.404Z,5.67
2023-02-26T05:01:43.399Z,5.50
2023-02-26T05:04:11.054Z,4.27
2023-02-26T05:06:38.660Z,5.77
2023-02-26T05:09:05.801Z,2.20
2023-02-26T05:11:35.631Z,3.50
2023-02-26T05:14:02.532Z,2.27
2023-02-26T05:16:33.549Z,5.63
2023-02-26T05:19:00.677Z,5.17
2023-02-26T05:21:27.798Z,6.83
2023-02-26T05:23:54.593Z,6.33
2023-02-26T05:26:21.477Z,4.23
2023-02-26T05:28:49.292Z,3.80
2023-02-26T05:31:16.346Z,3.30
2023-02-26T05:33:43.337Z,3.80
2023-02-26T05:36:10.692Z,3.60
2023-02-26T05:38:37.548Z,3.17
2023-02-26T05:41:04.697Z,2.87
2023-02-26T05:43:32.060Z,8.20
2023-02-26T05:45:58.928Z,5.20
2023-02-26T05:48:26.040Z,5.43
2023-02-26T05:50:53.025Z,6.37
2023-02-26T05:53:20.763Z,7.00
2023-02-26T05:55:47.633Z,3.10
2023-02-26T05:58:15.676Z,5.47
2023-02-26T06:00:42.830Z,5.97
2023-02-26T06:03:09.705Z,8.17
2023-02-26T06:05:37.226Z,5.20
2023-02-26T06:08:05.902Z,6.37
2023-02-26T06:10:33.505Z,4.53
2023-02-26T06:13:00.331Z,5.20
2023-02-26T06:15:27.381Z,6.33
2023-02-26T06:17:54.226Z,7.60
2023-02-26T06:20:21.325Z,5.10
2023-02-26T06:22:48.173Z,4.03
2023-02-26T06:25:15.922Z,3.97
2023-02-26T06:27:43.019Z,6.43
2023-02-26T06:30:10.569Z,2.83
2023-02-26T06:32:37.571Z,11.97
2023-02-26T06:35:06.319Z,4.10
2023-02-26T06:37:33.586Z,4.40
2023-02-26T06:40:00.419Z,4.53
2023-02-26T06:42:27.398Z,6.30
2023-02-26T06:44:54.263Z,2.37
2023-02-26T06:47:21.129Z,3.13
2023-02-26T06:49:49.028Z,5.43
2023-02-26T06:52:15.994Z,4.73
2023-02-26T06:54:42.830Z,7.13
2023-02-26T06:57:09.906Z,7.90
2023-02-26T06:59:36.919Z,5.47
2023-02-26T07:02:04.008Z,4.97
2023-02-26T07:04:30.828Z,5.60
2023-02-26T07:06:57.691Z,3.93
2023-02-26T07:09:25.869Z,5.10
2023-02-26T07:11:52.778Z,6.03
2023-02-26T07:14:19.669Z,3.80
2023-02-26T07:16:46.532Z,5.70
2023-02-26T07:19:13.498Z,3.43
2023-02-26T07:21:40.357Z,5.53
2023-02-26T07:24:07.798Z,6.63
2023-02-26T07:26:34.741Z,5.90
2023-02-26T07:29:01.584Z,3.87
2023-02-26T07:31:28.594Z,2.90
2023-02-26T07:33:55.543Z,4.83
2023-02-26T07:36:22.438Z,5.17
2023-02-26T07:38:49.313Z,3.97
2023-02-26T07:41:16.231Z,5.50
2023-02-26T07:43:43.047Z,5.37
2023-02-26T07:46:10.089Z,4.10
2023-02-26T07:48:37.241Z,5.23
2023-02-26T07:51:04.869Z,6.10
2023-02-26T07:53:31.718Z,3.67
2023-02-26T07:55:58.606Z,6.60
2023-02-26T07:58:25.579Z,7.73
2023-02-26T08:00:52.866Z,4.10
2023-02-26T08:03:20.440Z,6.13
2023-02-26T08:05:47.385Z,4.97
2023-02-26T08:08:14.492Z,4.35
2023-02-26T08:10:42.363Z,4.97
2023-02-26T08:13:09.919Z,4.87
2023-02-26T08:15:37.017Z,4.25
2023-02-26T08:18:04.230Z,4.60
2023-02-26T08:20:31.128Z,5.60
2023-02-26T08:22:57.986Z,4.78
2023-02-26T08:25:24.887Z,3.63
2023-02-26T08:27:51.695Z,4.65
2023-02-26T08:30:18.988Z,4.55
2023-02-26T08:32:46.155Z,5.68
2023-02-26T08:35:13.231Z,3.63
2023-02-26T08:37:40.047Z,4.53
2023-02-26T08:40:10.610Z,4.38
2023-02-26T08:42:37.825Z,4.68
2023-02-26T08:45:05.347Z,5.07
2023-02-26T08:47:33.032Z,4.53
2023-02-26T08:50:00.943Z,4.03
2023-02-26T08:52:27.745Z,6.88
2023-02-26T08:54:54.647Z,4.07
2023-02-26T08:57:21.700Z,3.95
2023-02-26T08:59:48.532Z,5.68
2023-02-26T09:02:15.434Z,5.65
2023-02-26T09:07:16.360Z,4.03
2023-02-26T09:09:43.220Z,6.10
2023-02-26T09:12:10.130Z,3.60
2023-02-26T09:14:36.991Z,4.05
2023-02-26T09:17:05.040Z,4.00
2023-02-26T09:19:31.903Z,5.35
2023-02-26T09:21:58.810Z,4.10
2023-02-26T09:24:25.780Z,4.43
2023-02-26T09:26:52.708Z,4.15
2023-02-26T09:29:19.732Z,4.40
2023-02-26T09:31:46.752Z,3.80
2023-02-26T09:34:13.843Z,4.50
2023-02-26T09:36:41.217Z,3.10
2023-02-26T09:39:08.908Z,3.13
2023-02-26T09:41:43.082Z,1.98
2023-02-26T09:44:23.390Z,4.15
2023-02-26T09:47:02.084Z,3.58
2023-02-26T09:49:42.200Z,3.28
2023-02-26T09:52:24.435Z,3.07
2023-02-26T09:54:54.198Z,2.00
2023-02-26T09:57:43.138Z,3.10
2023-02-26T10:00:35.738Z,3.87
2023-02-26T10:03:33.194Z,3.43
2023-02-26T10:06:09.165Z,2.20
2023-02-26T10:08:56.209Z,3.58
2023-02-26T10:11:51.909Z,2.60
2023-02-26T10:14:28.513Z,3.00
2023-02-26T10:17:00.802Z,2.83
2023-02-26T10:19:32.281Z,4.10
2023-02-26T10:22:09.777Z,2.87
2023-02-26T10:24:44.972Z,2.45
2023-02-26T10:27:56.949Z,3.55
2023-02-26T10:30:53.985Z,3.35
2023-02-26T10:33:55.995Z,2.45
2023-02-26T10:36:25.226Z,2.72
2023-02-26T10:38:59.210Z,4.18
2023-02-26T10:41:30.586Z,2.97
2023-02-26T10:44:05.567Z,3.63
2023-02-26T10:46:38.276Z,4.82
2023-02-26T10:49:10.790Z,3.25
2023-02-26T10:51:39.578Z,3.28
2023-02-26T10:54:18.061Z,2.97
2023-02-26T10:56:44.971Z,3.45
2023-02-26T10:59:12.129Z,2.63
2023-02-26T11:01:39.403Z,3.90
2023-02-26T11:04:09.802Z,3.45
2023-02-26T11:06:45.285Z,5.10
2023-02-26T11:09:26.121Z,3.00
2023-02-26T11:11:54.500Z,4.28
2023-02-26T11:14:23.738Z,2.33
2023-02-26T11:17:01.909Z,2.85
2023-02-26T11:19:36.050Z,2.28
2023-02-26T11:22:04.906Z,3.70
2023-02-26T11:24:36.631Z,3.10
2023-02-26T11:27:06.797Z,1.90
2023-02-26T11:29:38.534Z,2.33
2023-02-26T11:32:06.553Z,2.17
2023-02-26T11:34:34.567Z,2.30
2023-02-26T11:37:02.224Z,2.30
2023-02-26T11:39:33.542Z,2.47
2023-02-26T11:42:02.667Z,2.15
2023-02-26T11:44:29.467Z,2.95
2023-02-26T11:46:58.729Z,2.22
2023-02-26T11:49:28.524Z,3.05
2023-02-26T11:52:27.616Z,2.88
2023-02-26T11:55:01.420Z,3.65
2023-02-26T11:57:30.832Z,3.60
2023-02-26T12:00:01.153Z,3.78
2023-02-26T12:02:35.301Z,3.03
2023-02-26T12:05:05.822Z,2.50
2023-02-26T12:07:32.781Z,2.53
2023-02-26T12:09:59.878Z,3.25
2023-02-26T12:12:38.900Z,2.85
2023-02-26T12:15:54.591Z,3.17
2023-02-26T12:18:27.673Z,3.47
2023-02-26T12:21:07.064Z,2.92
2023-02-26T12:23:49.439Z,2.78
2023-02-26T12:26:24.831Z,3.75
2023-02-26T12:29:00.383Z,2.50
2023-02-26T12:31:36.587Z,2.53
2023-02-26T12:34:12.584Z,3.10
2023-02-26T12:36:54.852Z,2.72
2023-02-26T12:39:51.533Z,2.25
2023-02-26T12:42:23.109Z,2.88
2023-02-26T12:45:16.574Z,2.58
2023-02-26T12:47:58.489Z,2.30
2023-02-26T12:50:25.281Z,2.00
2023-02-26T12:53:14.387Z,1.95
2023-02-26T12:55:47.181Z,2.60
2023-02-26T12:58:25.091Z,3.00
2023-02-26T13:01:26.424Z,3.67
2023-02-26T13:04:28.948Z,3.08
2023-02-26T13:07:11.763Z,2.85
2023-02-26T13:10:15.841Z,2.47
2023-02-26T13:25:41.432Z,2.17
2023-02-26T13:28:42.075Z,3.58
2023-02-26T13:31:26.781Z,2.25
2023-02-26T13:33:58.686Z,1.90
2023-02-26T13:36:27.854Z,1.67
2023-02-26T13:39:22.785Z,2.08
2023-02-26T13:42:29.602Z,4.05
2023-02-26T13:45:28.761Z,2.60
2023-02-26T13:48:12.262Z,2.33
2023-02-26T13:50:57.492Z,4.25
2023-02-26T13:53:24.653Z,2.20
2023-02-26T13:55:54.196Z,2.40
2023-02-26T13:58:24.185Z,2.03
2023-02-26T14:01:16.521Z,2.83
2023-02-26T14:03:51.826Z,2.47
2023-02-26T14:06:37.337Z,1.98
2023-02-26T14:09:28.955Z,3.70
2023-02-26T14:11:55.880Z,2.80
2023-02-26T14:14:22.821Z,3.35
2023-02-26T14:17:15.994Z,2.60
2023-02-26T14:19:52.127Z,2.70
2023-02-26T14:22:29.060Z,2.45
2023-02-26T14:25:16.327Z,2.60
2023-02-26T14:27:47.321Z,2.33
2023-02-26T14:30:42.646Z,1.85
2023-02-26T14:33:17.756Z,2.40
2023-02-26T14:35:49.081Z,2.90
2023-02-26T14:38:25.832Z,2.45
2023-02-26T14:41:29.712Z,3.20
2023-02-26T14:44:03.872Z,3.03
2023-02-26T14:46:31.270Z,3.00
2023-02-26T14:48:58.590Z,2.25
2023-02-26T14:51:40.492Z,2.42
2023-02-26T14:54:34.732Z,2.37
2023-02-26T14:57:36.075Z,2.30
2023-02-26T15:00:22.741Z,2.97
2023-02-26T15:03:27.041Z,2.13
2023-02-26T15:06:40.792Z,2.28
2023-02-26T15:09:37.935Z,2.00
2023-02-26T15:12:36.620Z,2.08
2023-02-26T15:15:38.108Z,2.10
2023-02-26T15:18:44.779Z,2.47
2023-02-26T15:21:59.951Z,3.00
2023-02-26T15:24:30.183Z,2.57
2023-02-26T15:27:07.789Z,2.20
2023-02-26T15:29:39.236Z,4.28
2023-02-26T15:32:26.969Z,3.67
2023-02-26T15:35:23.771Z,3.30
2023-02-26T15:37:57.178Z,2.22
2023-02-26T15:40:42.953Z,2.40
2023-02-26T15:43:15.498Z,2.17
2023-02-26T15:45:46.482Z,2.63
2023-02-26T15:48:42.403Z,1.90
2023-02-26T15:51:13.406Z,3.00
2023-02-26T15:53:48.610Z,2.17
2023-02-26T15:56:27.146Z,3.08
2023-02-26T15:59:00.593Z,3.20
2023-02-26T16:01:30.296Z,2.00
2023-02-26T16:04:05.958Z,2.78
2023-02-26T16:06:40.724Z,1.70
2023-02-26T16:09:19.875Z,2.35
2023-02-26T16:11:48.212Z,2.13
2023-02-26T16:14:24.060Z,2.40
2023-02-26T16:16:54.851Z,3.88
2023-02-26T16:19:46.198Z,2.95
2023-02-26T16:22:38.264Z,2.25
2023-02-26T16:25:15.953Z,2.67
2023-02-26T16:27:44.473Z,3.73
2023-02-26T16:30:23.833Z,3.08
2023-02-26T16:32:54.683Z,3.40
2023-02-26T16:35:24.440Z,3.45
2023-02-26T16:37:55.264Z,2.35
2023-02-26T16:40:36.401Z,2.33
2023-02-26T16:43:23.732Z,2.72
2023-02-26T16:45:55.400Z,3.05
2023-02-26T16:48:30.275Z,3.17
2023-02-26T16:51:12.771Z,2.60
2023-02-26T16:53:46.012Z,2.30
2023-02-26T17:01:20.563Z,2.70
2023-02-26T17:03:51.319Z,2.83
2023-02-26T17:06:19.763Z,3.43
2023-02-26T17:09:01.228Z,2.90
2023-02-26T17:11:40.397Z,2.63
2023-02-26T17:14:25.850Z,3.33
2023-02-26T17:16:53.624Z,4.13
2023-02-26T17:19:20.757Z,4.40
2023-02-26T17:21:57.651Z,2.80
2023-02-26T17:24:32.009Z,4.20
2023-02-26T17:27:01.224Z,3.17
2023-02-26T17:29:40.917Z,3.77
2023-02-26T17:32:18.803Z,4.50
2023-02-26T17:34:46.021Z,4.47
2023-02-26T17:37:14.960Z,2.80
2023-02-26T17:39:43.295Z,3.67
2023-02-26T17:42:19.419Z,3.95
2023-02-26T17:44:46.511Z,3.67
2023-02-26T17:47:18.176Z,3.92
2023-02-26T17:49:45.273Z,4.47
2023-02-26T17:52:12.660Z,5.40
2023-02-26T17:54:40.019Z,4.80
2023-02-26T17:57:10.826Z,5.65
2023-02-26T17:59:37.960Z,7.45
2023-02-26T18:02:22.302Z,7.65
2023-02-26T18:04:49.612Z,8.80
2023-02-26T18:07:17.868Z,5.93
2023-02-26T18:09:46.324Z,5.43
2023-02-26T18:12:23.361Z,7.18
2023-02-26T18:14:50.803Z,6.57
2023-02-26T18:17:28.434Z,5.97
2023-02-26T18:19:55.702Z,5.60
2023-02-26T18:22:27.885Z,6.17
2023-02-26T18:24:55.542Z,5.43
2023-02-26T18:27:24.988Z,6.82
2023-02-26T18:29:52.734Z,6.05
2023-02-26T18:32:23.306Z,5.95
2023-02-26T18:34:51.296Z,5.13
2023-02-26T18:37:23.417Z,7.88
2023-02-26T18:39:51.162Z,5.40
2023-02-26T18:42:26.455Z,5.67
2023-02-26T18:44:54.522Z,7.97
2023-02-26T18:47:22.770Z,8.17
2023-02-26T18:49:51.151Z,6.65
2023-02-26T18:52:18.941Z,8.02
2023-02-26T18:54:46.120Z,7.15
2023-02-26T18:57:13.497Z,7.93
2023-02-26T18:59:40.603Z,7.43
2023-02-26T19:02:11.019Z,5.90
2023-02-26T19:04:38.642Z,5.18
2023-02-26T19:07:06.365Z,6.90
2023-02-26T19:09:35.117Z,4.80
2023-02-26T19:12:03.373Z,5.07
2023-02-26T19:14:30.511Z,5.85
2023-02-26T19:16:57.495Z,4.68
2023-02-26T19:19:24.559Z,5.00
2023-02-26T19:21:51.669Z,6.53
2023-02-26T19:24:18.652Z,3.65
2023-02-26T19:26:46.748Z,4.40
2023-02-26T19:29:19.873Z,3.83
2023-02-26T19:31:47.160Z,7.55
2023-02-26T19:34:14.794Z,3.88
2023-02-26T19:36:48.045Z,3.95
2023-02-26T19:39:17.429Z,4.88
2023-02-26T19:41:46.070Z,4.68
2023-02-26T19:44:13.161Z,4.18
2023-02-26T19:46:41.969Z,5.20
2023-02-26T19:49:12.489Z,5.30
2023-02-26T19:51:39.803Z,5.33
2023-02-26T19:54:07.824Z,5.13
2023-02-26T19:56:35.593Z,5.77
2023-02-26T19:59:02.765Z,5.28
2023-02-26T20:01:30.072Z,5.82
2023-02-26T20:03:57.356Z,6.63
2023-02-26T20:06:24.621Z,4.23
2023-02-26T20:08:52.534Z,6.68
2023-02-26T20:11:19.732Z,5.03
2023-02-26T20:13:46.961Z,6.63
2023-02-26T20:16:14.290Z,7.40
2023-02-26T20:18:41.372Z,6.05
2023-02-26T20:21:10.892Z,6.32
2023-02-26T20:23:39.729Z,6.53
2023-02-26T20:26:14.405Z,6.75
2023-02-26T20:28:42.348Z,7.65
2023-02-26T20:31:10.838Z,7.47
2023-02-26T20:33:43.476Z,5.97
2023-02-26T20:36:12.114Z,5.00
2023-02-26T20:38:39.276Z,4.70
2023-02-26T20:41:06.740Z,5.67
2023-02-26T20:43:39.339Z,6.03
2023-02-26T20:46:07.280Z,5.60
2023-02-26T20:48:37.125Z,7.15
2023-02-26T20:51:06.439Z,6.28
2023-02-26T20:53:34.088Z,8.93
2023-02-26T20:56:01.213Z,5.88
2023-02-26T20:58:28.268Z,6.63
2023-02-26T21:00:59.013Z,7.60
2023-02-26T21:03:26.493Z,7.40
2023-02-26T21:05:53.916Z,10.95
2023-02-26T21:08:21.853Z,9.77
2023-02-26T21:10:52.234Z,8.13
2023-02-26T21:13:20.006Z,13.63
2023-02-26T21:15:49.513Z,9.95
2023-02-26T21:18:16.707Z,7.03
2023-02-26T21:20:43.827Z,6.07
2023-02-26T21:23:10.803Z,6.80
2023-02-26T21:25:39.651Z,5.80
2023-02-26T21:28:06.783Z,5.97
2023-02-26T21:30:34.000Z,6.95
2023-02-26T21:33:01.015Z,6.30
2023-02-26T21:35:28.234Z,6.68
2023-02-26T21:37:55.509Z,7.10
2023-02-26T21:40:22.833Z,7.05
2023-02-26T21:42:50.040Z,17.02
2023-02-26T21:45:17.183Z,16.60
2023-02-26T21:47:44.367Z,14.10
2023-02-26T21:50:12.044Z,10.63
2023-02-26T21:52:39.202Z,12.23
2023-02-26T21:55:06.795Z,12.20
2023-02-26T21:57:33.886Z,12.10
2023-02-26T22:00:01.187Z,15.95
2023-02-26T22:02:29.614Z,10.52
2023-02-26T22:04:57.954Z,12.93
2023-02-26T22:07:25.089Z,12.50
2023-02-26T22:09:52.096Z,8.40
2023-02-26T22:12:19.362Z,8.65
2023-02-26T22:14:46.532Z,12.10
2023-02-26T22:17:13.596Z,30.65
2023-02-26T22:19:41.004Z,20.25
2023-02-26T22:22:09.328Z,10.73
2023-02-26T22:24:36.855Z,8.88
2023-02-26T22:27:03.967Z,9.32
2023-02-26T22:29:31.119Z,9.00
2023-02-26T22:31:58.243Z,7.90
2023-02-26T22:34:25.897Z,8.63
2023-02-26T22:36:53.297Z,10.13
2023-02-26T22:39:20.612Z,6.93
2023-02-26T22:41:47.920Z,8.80
2023-02-26T22:44:15.294Z,8.35
2023-02-26T22:46:42.606Z,9.43
2023-02-26T22:49:09.966Z,11.90
2023-02-26T22:51:37.182Z,7.72
2023-02-26T22:54:04.713Z,9.52
2023-02-26T22:56:31.864Z,8.85
2023-02-26T22:58:58.808Z,8.60
2023-02-26T23:01:26.124Z,7.73
2023-02-26T23:03:53.145Z,7.75
2023-02-26T23:06:20.190Z,7.38
2023-02-26T23:08:47.567Z,7.40
2023-02-26T23:11:14.824Z,5.65
2023-02-26T23:13:42.323Z,6.37
2023-02-26T23:16:11.829Z,5.72
2023-02-26T23:18:39.678Z,7.35
2023-02-26T23:21:08.264Z,8.07
2023-02-26T23:23:35.333Z,5.13
2023-02-26T23:26:02.684Z,5.80
2023-02-26T23:28:29.936Z,7.22
2023-02-26T23:30:57.007Z,5.40
2023-02-26T23:33:24.169Z,6.50
2023-02-26T23:35:51.156Z,8.03
2023-02-26T23:38:18.245Z,7.32
2023-02-26T23:40:45.340Z,5.75
2023-02-26T23:43:12.301Z,5.47
2023-02-26T23:45:39.626Z,5.22
2023-02-26T23:48:06.854Z,6.60
2023-02-26T23:50:33.861Z,8.55
2023-02-26T23:53:00.917Z,8.38
2023-02-26T23:55:27.957Z,7.30
2023-02-26T23:57:54.896Z,5.78
